Time;durP1;ratioP1;P1;durP2;ratioP2;P2;SDS_P1;SDS_P2;PMS_P1;PMS_P2;Temp;Humidity;BMP_temperature;BMP_pressure;BME280_temperature;BME280_humidity;BME280_pressure;Samples;Min_cycle;Max_cycle;Signal;HPM_P1;HPM_P2
2023/07/08 00:02:44;;;;;;;14.50;9.73;;;;;;;21.00;70.33;97781.13;10326439;28;20087;-50
2023/07/08 00:07:44;;;;;;;14.98;10.05;;;;;;;20.94;70.43;97778.75;10325750;28;20079;-48
2023/07/08 00:12:44;;;;;;;11.20;8.95;;;;;;;20.90;70.68;97780.66;10326140;28;20072;-48
2023/07/08 00:17:44;;;;;;;12.93;9.40;;;;;;;20.81;71.90;97774.91;10325825;28;20430;-50
2023/07/08 00:22:46;;;;;;;18.35;9.18;;;;;;;20.76;72.31;97771.63;10324496;28;20065;-51
2023/07/08 00:27:47;;;;;;;13.38;9.80;;;;;;;20.70;72.86;97780.63;10326334;28;20124;-49
2023/07/08 00:32:46;;;;;;;14.13;10.70;;;;;;;20.68;73.32;97779.84;10323081;28;20586;-50
2023/07/08 00:37:46;;;;;;;13.60;10.50;;;;;;;20.63;73.97;97755.44;10324478;28;20088;-50
2023/07/08 00:42:45;;;;;;;13.55;11.00;;;;;;;20.59;74.86;97760.00;10324931;28;20209;-50
2023/07/08 00:47:44;;;;;;;14.57;10.75;;;;;;;20.40;76.24;97764.28;10325028;28;20087;-51
2023/07/08 00:52:45;;;;;;;12.38;10.30;;;;;;;20.36;76.11;97752.16;10324398;28;20116;-49
2023/07/08 00:57:45;;;;;;;15.45;11.85;;;;;;;20.27;77.60;97758.63;10325391;28;20091;-51
2023/07/08 01:02:49;;;;;;;15.82;11.82;;;;;;;20.21;78.02;97753.59;10323905;28;20116;-51
2023/07/08 01:07:53;;;;;;;15.55;11.60;;;;;;;19.84;78.85;97702.38;10323870;28;20144;-49
2023/07/08 01:12:57;;;;;;;14.70;12.10;;;;;;;20.06;79.45;97752.44;10323970;28;20109;-50
2023/07/08 01:17:56;;;;;;;14.45;11.85;;;;;;;20.02;80.13;97753.47;10323999;28;20068;-49
2023/07/08 01:22:55;;;;;;;16.52;12.05;;;;;;;19.77;80.50;97730.72;10324745;28;20583;-51
2023/07/08 01:27:56;;;;;;;16.02;12.70;;;;;;;19.89;81.37;97747.84;10331418;28;20481;-49
2023/07/08 01:33:03;;;;;;;16.80;12.60;;;;;;;19.82;81.96;97747.22;10331702;28;20087;-51
2023/07/08 01:38:05;;;;;;;19.30;12.07;;;;;;;19.72;82.53;97745.84;10331326;28;20132;-51
2023/07/08 01:43:05;;;;;;;14.55;9.90;;;;;;;19.65;82.24;97747.00;10331480;28;20072;-51
2023/07/08 01:48:17;;;;;;;11.70;9.32;;;;;;;19.03;80.99;97651.03;10331427;28;20128;-48
2023/07/08 01:53:29;;;;;;;12.93;8.80;;;;;;;19.49;80.19;97744.03;10330664;28;20108;-48
2023/07/08 01:58:28;;;;;;;12.52;8.48;;;;;;;19.45;79.85;97742.44;10330740;28;20100;-51
2023/07/08 02:03:28;;;;;;;13.15;9.65;;;;;;;19.24;79.59;97733.56;10330299;28;20457;-50
2023/07/08 02:08:27;;;;;;;14.25;8.75;;;;;;;19.20;80.05;97748.56;10330282;28;20540;-49
2023/07/08 02:13:26;;;;;;;13.40;8.13;;;;;;;19.18;79.20;97749.53;10329600;28;20488;-49
2023/07/08 02:18:25;;;;;;;10.73;8.20;;;;;;;19.20;78.75;97745.09;10330420;28;20132;-51
2023/07/08 02:23:27;;;;;;;11.85;8.70;;;;;;;19.24;78.77;97746.72;10329718;28;20052;-49
2023/07/08 02:28:26;;;;;;;16.20;9.60;;;;;;;19.26;79.27;97752.78;10329475;28;20137;-51
2023/07/08 02:33:32;;;;;;;16.40;9.95;;;;;;;19.30;79.57;97758.78;10329715;28;20033;-51
2023/07/08 02:38:31;;;;;;;15.93;8.05;;;;;;;19.30;79.47;97764.91;10328834;28;20077;-51
2023/07/08 02:43:30;;;;;;;10.32;7.60;;;;;;;19.34;78.75;97763.88;10328519;28;20028;-51
2023/07/08 02:48:29;;;;;;;12.68;8.85;;;;;;;19.35;78.32;97768.22;10329887;28;20449;-49
2023/07/08 02:53:29;;;;;;;10.00;7.20;;;;;;;19.32;77.49;97771.00;10328848;28;20515;-51
2023/07/08 02:58:28;;;;;;;12.88;8.48;;;;;;;19.34;77.07;97768.28;10328665;28;20108;-48
2023/07/08 03:03:31;;;;;;;10.98;7.90;;;;;;;19.32;77.02;97778.88;10328655;28;20137;-51
2023/07/08 03:08:30;;;;;;;11.20;9.05;;;;;;;18.99;80.21;97792.31;10327892;28;20132;-51
2023/07/08 03:13:30;;;;;;;16.52;10.63;;;;;;;18.94;81.05;97786.31;10328128;28;20059;-51
2023/07/08 03:18:29;;;;;;;12.77;9.82;;;;;;;18.89;82.51;97798.75;10327439;28;20072;-48
2023/07/08 03:23:28;;;;;;;18.25;11.25;;;;;;;18.63;83.17;97744.41;10327497;28;20136;-48
2023/07/08 03:28:27;;;;;;;14.75;10.63;;;;;;;19.00;83.25;97795.78;10327946;28;20037;-47
2023/07/08 03:33:26;;;;;;;13.88;11.07;;;;;;;19.06;83.32;97792.06;10327243;28;20033;-51
2023/07/08 03:38:25;;;;;;;14.20;10.40;;;;;;;19.15;82.59;97797.88;10326587;28;20075;-50
2023/07/08 03:43:24;;;;;;;14.57;10.32;;;;;;;19.24;81.89;97796.69;10326667;28;20037;-50
2023/07/08 03:48:23;;;;;;;16.85;11.43;;;;;;;19.34;81.85;97805.13;10325847;28;20124;-49
2023/07/08 03:53:22;;;;;;;17.20;11.75;;;;;;;19.35;82.04;97805.06;10325993;28;20156;-50
2023/07/08 03:58:21;;;;;;;16.42;12.25;;;;;;;19.39;81.54;97806.69;10327069;28;20136;-48
2023/07/08 04:03:20;;;;;;;17.52;10.32;;;;;;;19.39;80.83;97817.22;10326086;28;20037;-50
2023/07/08 04:08:19;;;;;;;15.18;10.52;;;;;;;19.15;81.16;97818.91;10326055;28;20542;-50
2023/07/08 04:13:17;;;;;;;14.27;10.50;;;;;;;19.30;81.18;97812.28;10325792;28;20499;-50
2023/07/08 04:18:16;;;;;;;17.35;9.73;;;;;;;19.45;80.23;97818.75;10325513;28;20586;-49
2023/07/08 04:23:15;;;;;;;15.48;10.43;;;;;;;19.51;80.15;97818.53;10324819;28;20120;-51
2023/07/08 04:28:15;;;;;;;13.05;10.70;;;;;;;19.80;80.12;97809.59;10324958;28;20025;-49
2023/07/08 04:33:15;;;;;;;14.05;10.45;;;;;;;19.94;78.73;97809.09;10324765;28;20129;-50
2023/07/08 04:38:21;;;;;;;13.05;10.50;;;;;;;19.84;78.93;97798.03;10324652;28;20084;-50
2023/07/08 04:43:21;;;;;;;14.95;10.77;;;;;;;19.99;79.40;97803.66;10324980;28;20500;-48
2023/07/08 04:48:21;;;;;;;14.95;10.68;;;;;;;20.08;78.22;97800.66;10324227;28;20076;-49
2023/07/08 04:53:20;;;;;;;15.43;11.07;;;;;;;20.18;77.75;97804.63;10324299;28;20120;-50
2023/07/08 04:58:19;;;;;;;14.57;10.10;;;;;;;20.05;77.62;97754.22;10323813;28;20480;-48
2023/07/08 05:03:18;;;;;;;15.55;11.45;;;;;;;20.47;76.81;97805.31;10324486;28;20553;-51
2023/07/08 05:08:17;;;;;;;13.18;9.90;;;;;;;20.62;77.12;97802.06;10323781;28;20038;-48
2023/07/08 05:13:16;;;;;;;15.13;10.68;;;;;;;20.84;76.48;97816.97;10323410;28;20108;-48
2023/07/08 05:18:14;;;;;;;15.60;9.80;;;;;;;20.92;75.69;97814.91;10326121;28;20050;-50
2023/07/08 05:23:13;;;;;;;12.50;10.60;;;;;;;21.18;75.44;97808.50;10326931;28;20049;-48
2023/07/08 05:28:13;;;;;;;12.85;9.43;;;;;;;21.38;74.57;97802.38;10326837;28;20109;-49
2023/07/08 05:33:11;;;;;;;11.35;9.38;;;;;;;21.52;73.07;97809.69;10326552;28;20072;-50
2023/07/08 05:38:10;;;;;;;16.13;9.77;;;;;;;21.66;73.50;97802.00;10326873;28;20057;-50
2023/07/08 05:43:09;;;;;;;11.73;9.32;;;;;;;21.76;71.50;97811.25;10327247;28;20105;-52
2023/07/08 05:48:08;;;;;;;14.23;9.93;;;;;;;21.94;71.83;97800.75;10326152;28;20584;-50
2023/07/08 05:53:10;;;;;;;12.38;8.55;;;;;;;22.25;69.35;97805.53;10326513;28;20503;-51
2023/07/08 05:58:10;;;;;;;15.48;8.05;;;;;;;22.40;67.24;97809.22;10327435;28;20478;-51
2023/07/08 06:03:09;;;;;;;9.43;6.75;;;;;;;22.71;64.62;97820.94;10326110;28;20072;-52
2023/07/08 06:08:08;;;;;;;10.02;6.57;;;;;;;22.90;64.22;97813.81;10327067;28;20077;-49
2023/07/08 06:13:07;;;;;;;9.80;6.15;;;;;;;22.91;57.28;97825.28;10332645;28;20123;-52
2023/07/08 06:18:06;;;;;;;8.45;5.60;;;;;;;22.72;56.07;97775.91;10331211;28;20052;-49
2023/07/08 06:23:05;;;;;;;8.57;5.60;;;;;;;23.04;55.54;97805.19;10330712;28;20603;-51
2023/07/08 06:28:04;;;;;;;7.68;5.22;;;;;;;23.30;53.98;97824.19;10329069;28;20132;-51
2023/07/08 06:33:04;;;;;;;6.88;4.82;;;;;;;23.48;54.50;97830.38;10329810;28;20124;-51
2023/07/08 06:38:03;;;;;;;6.55;5.10;;;;;;;23.72;54.76;97828.22;10329429;28;20065;-51
2023/07/08 06:43:03;;;;;;;7.32;5.07;;;;;;;23.82;53.78;97830.31;10329591;28;20073;-51
2023/07/08 06:48:02;;;;;;;7.15;4.18;;;;;;;23.71;52.76;97827.38;10328668;28;20121;-48
2023/07/08 06:53:01;;;;;;;7.70;4.90;;;;;;;23.51;53.53;97832.84;10329310;28;20103;-53
2023/07/08 06:58:00;;;;;;;6.47;5.22;;;;;;;23.77;54.29;97834.13;10328727;28;20044;-51
2023/07/08 07:02:59;;;;;;;4.82;3.35;;;;;;;23.39;49.51;97826.38;10328186;28;20544;-50
2023/07/08 07:07:57;;;;;;;4.30;3.20;;;;;;;23.29;49.96;97844.53;10328335;28;20383;-52
2023/07/08 07:12:56;;;;;;;5.43;3.33;;;;;;;23.34;50.08;97836.34;10327915;28;20048;-50
2023/07/08 07:17:56;;;;;;;5.50;3.72;;;;;;;23.49;50.31;97850.59;10330081;28;20036;-51
2023/07/08 07:22:55;;;;;;;5.05;3.20;;;;;;;23.66;49.08;97837.34;10331630;28;20088;-52
2023/07/08 07:27:54;;;;;;;3.47;2.83;;;;;;;23.58;49.50;97853.66;10330608;28;20029;-50
2023/07/08 07:32:53;;;;;;;5.53;3.53;;;;;;;23.74;48.45;97855.50;10330756;28;20069;-51
2023/07/08 07:37:52;;;;;;;4.53;3.60;;;;;;;23.96;48.62;97860.50;10330920;28;20119;-50
2023/07/08 07:42:51;;;;;;;3.65;3.10;;;;;;;24.26;46.78;97865.97;10330097;28;20060;-49
2023/07/08 07:47:50;;;;;;;5.13;3.38;;;;;;;24.30;45.48;97859.56;10328782;28;20045;-49
2023/07/08 07:52:49;;;;;;;3.80;3.30;;;;;;;24.67;45.83;97857.50;10329902;28;20035;-49
2023/07/08 07:57:48;;;;;;;5.15;3.42;;;;;;;24.71;45.89;97861.72;10329643;28;20088;-48
2023/07/08 08:02:47;;;;;;;5.10;3.50;;;;;;;24.19;46.53;97864.59;10329563;28;20391;-49
2023/07/08 08:07:47;;;;;;;6.50;3.65;;;;;;;24.01;47.45;97826.66;10330177;28;20509;-49
2023/07/08 08:12:50;;;;;;;6.65;3.17;;;;;;;23.86;48.69;97849.53;10328919;28;20077;-50
2023/07/08 08:17:51;;;;;;;5.45;3.33;;;;;;;24.08;48.10;97869.59;10327147;28;20579;-52
2023/07/08 08:22:51;;;;;;;8.10;3.92;;;;;;;24.05;47.86;97863.53;10325789;28;20084;-48
2023/07/08 08:27:52;;;;;;;7.22;3.38;;;;;;;24.12;47.95;97873.78;10325185;28;20068;-51
2023/07/08 08:32:51;;;;;;;4.38;3.67;;;;;;;24.27;47.22;97876.50;10324415;28;20076;-49
2023/07/08 08:37:50;;;;;;;5.25;3.58;;;;;;;24.79;46.93;97869.22;10325387;28;20076;-51
2023/07/08 08:43:09;;;;;;;4.75;3.80;;;;;;;24.89;47.01;97876.63;10324636;28;20030;-50
2023/07/08 08:48:13;;;;;;;4.68;3.63;;;;;;;25.35;45.67;97877.53;10325014;28;20112;-49
2023/07/08 08:53:14;;;;;;;5.72;3.63;;;;;;;25.53;46.56;97871.13;10323680;28;20056;-51
2023/07/08 08:58:43;;;;;;;6.00;3.80;;;;;;;25.89;46.19;97869.88;10324835;28;20065;-50
2023/07/08 09:03:57;;;;;;;;;;;;;;;26.19;46.14;97876.91;10324588;28;20141;-49
2023/07/08 09:09:02;;;;;;;5.35;3.95;;;;;;;25.79;45.59;97860.75;10324434;28;20439;-51
2023/07/08 09:14:02;;;;;;;5.93;4.00;;;;;;;25.97;45.14;97870.25;10323348;28;20539;-51
2023/07/08 09:19:14;;;;;;;5.28;3.92;;;;;;;25.81;45.69;97846.44;10324500;28;20517;-50
2023/07/08 09:24:24;;;;;;;4.82;3.53;;;;;;;26.04;45.17;97865.41;10324159;28;20076;-50
2023/07/08 09:29:23;;;;;;;7.05;3.78;;;;;;;26.17;44.45;97864.53;10324456;28;20548;-50
2023/07/08 09:34:24;;;;;;;5.50;3.78;;;;;;;26.06;45.06;97864.34;10323381;28;20048;-50
2023/07/08 09:39:22;;;;;;;5.75;3.80;;;;;;;25.73;47.07;97857.50;10323966;28;20140;-51
2023/07/08 09:44:28;;;;;;;4.55;3.20;;;;;;;25.65;46.89;97841.19;10323090;28;20133;-51
2023/07/08 09:49:32;;;;;;;6.57;3.67;;;;;;;25.67;47.11;97826.00;10331560;28;20081;-51
2023/07/08 09:54:32;;;;;;;4.70;3.45;;;;;;;25.70;46.10;97841.75;10330347;28;20116;-50
2023/07/08 09:59:39;;;;;;;4.07;3.65;;;;;;;25.61;46.66;97838.81;10331100;28;20069;-50
2023/07/08 10:04:38;;;;;;;4.65;3.83;;;;;;;25.45;46.14;97834.38;10330323;28;20487;-51
2023/07/08 10:09:37;;;;;;;4.88;3.72;;;;;;;25.55;47.37;97832.06;10330470;28;20476;-51
2023/07/08 10:15:00;;;;;;;8.82;4.65;;;;;;;25.56;47.18;97849.72;10329915;28;20483;-50
2023/07/08 10:19:59;;;;;;;7.53;4.20;;;;;;;25.46;47.42;97836.09;10333809;28;20072;-51
2023/07/08 10:25:10;;;;;;;7.20;4.45;;;;;;;25.63;47.50;97829.78;10333317;28;20041;-51
2023/07/08 10:30:26;;;;;;;5.55;4.22;;;;;;;25.87;47.25;97835.38;10333075;28;20338;-52
2023/07/08 10:35:30;;;;;;;8.32;4.97;;;;;;;25.95;47.62;97837.59;10332616;28;20059;-52
2023/07/08 10:40:47;;;;;;;6.25;4.70;;;;;;;25.64;47.18;97830.63;10332759;28;20060;-52
2023/07/08 10:46:07;;;;;;;5.38;4.38;;;;;;;25.84;46.22;97824.09;10332626;28;20439;-51
2023/07/08 10:51:34;;;;;;;5.82;4.45;;;;;;;26.17;45.49;97818.47;10332470;28;20088;-49
2023/07/08 10:57:16;;;;;;;4.97;4.40;;;;;;;26.12;46.37;97817.91;10331900;28;20357;-51
2023/07/08 11:02:22;;;;;;;6.95;4.43;;;;;;;26.05;47.19;97812.13;10332135;28;20060;-52
2023/07/08 11:07:36;;;;;;;6.72;5.22;;;;;;;26.04;46.78;97810.44;10331511;28;20072;-49
2023/07/08 11:12:45;;;;;;;5.90;4.65;;;;;;;26.03;46.21;97808.72;10331837;28;20072;-50
2023/07/08 11:18:05;;;;;;;6.32;4.28;;;;;;;26.08;45.55;97811.91;10329600;28;20076;-50
2023/07/08 11:23:29;;;;;;;5.85;4.50;;;;;;;26.10;46.23;97810.03;10327502;28;20080;-51
2023/07/08 11:28:28;;;;;;;7.05;4.88;;;;;;;26.07;45.83;97801.41;10326436;28;20128;-51
2023/07/08 11:33:31;;;;;;;9.15;6.10;;;;;;;26.48;45.62;97809.41;10327804;28;20152;-50
2023/07/08 11:38:33;;;;;;;5.93;4.50;;;;;;;26.76;44.08;97812.91;10327207;28;20064;-52
2023/07/08 11:44:02;;;;;;;6.90;4.68;;;;;;;26.99;44.34;97811.44;10327383;28;20112;-52
2023/07/08 11:49:14;;;;;;;;;;;;;;;26.87;43.85;97794.47;10325980;28;20548;-50
2023/07/08 11:54:35;;;;;;;7.07;4.20;;;;;;;26.90;42.57;97790.75;10325722;28;20007;-51
2023/07/08 11:59:38;;;;;;;6.95;4.53;;;;;;;27.27;42.47;97798.91;10326965;28;20514;-52
2023/07/08 12:05:02;;;;;;;6.55;4.43;;;;;;;27.36;43.15;97801.81;10326486;28;20420;-52
2023/07/08 12:10:27;;;;;;;6.75;4.22;;;;;;;27.39;43.05;97811.38;10322720;28;20084;-51
2023/07/08 12:15:31;;;;;;;6.32;4.00;;;;;;;27.08;39.88;97788.66;10326031;28;20511;-52
2023/07/08 12:20:34;;;;;;;5.85;4.10;;;;;;;27.13;42.15;97794.53;10325620;28;20583;-49
2023/07/08 12:25:36;;;;;;;9.02;4.82;;;;;;;27.51;42.42;97767.91;10325169;28;20069;-51
2023/07/08 12:30:36;;;;;;;5.75;4.40;;;;;;;27.99;41.90;97775.25;10325254;28;20115;-52
2023/07/08 12:35:35;;;;;;;6.95;5.13;;;;;;;27.60;41.74;97764.63;10325887;28;20088;-52
2023/07/08 12:40:34;;;;;;;7.47;5.25;;;;;;;27.16;40.80;97775.66;10326494;28;20112;-52
2023/07/08 12:45:33;;;;;;;6.30;4.43;;;;;;;27.04;41.93;97782.69;10325338;28;20112;-51
2023/07/08 12:50:32;;;;;;;5.38;4.30;;;;;;;27.34;41.27;97789.53;10323088;28;20496;-52
2023/07/08 12:55:31;;;;;;;6.35;4.72;;;;;;;27.55;41.38;97789.91;10324289;28;20163;-51
2023/07/08 13:00:40;;;;;;;9.43;4.70;;;;;;;27.27;41.34;97794.44;10323840;28;20412;-52
2023/07/08 13:05:40;;;;;;;5.05;4.53;;;;;;;26.62;42.15;97781.03;10323565;28;20175;-52
2023/07/08 13:10:42;;;;;;;6.40;4.82;;;;;;;26.73;41.85;97722.63;10324284;28;20136;-49
2023/07/08 13:15:42;;;;;;;5.07;3.97;;;;;;;27.26;42.00;97790.06;10323458;28;20120;-50
2023/07/08 13:20:42;;;;;;;6.88;4.63;;;;;;;27.77;41.65;97776.75;10327593;28;20140;-50
2023/07/08 13:25:41;;;;;;;5.32;4.57;;;;;;;27.79;41.85;97780.16;10331819;28;20116;-52
2023/07/08 13:30:52;;;;;;;10.10;4.72;;;;;;;27.47;40.92;97784.22;10331941;28;20037;-51
2023/07/08 13:35:52;;;;;;;7.85;5.45;;;;;;;27.40;40.97;97789.97;10332017;28;20069;-51
2023/07/08 13:40:57;;;;;;;22.77;5.40;;;;;;;26.56;47.61;97836.38;10331578;28;20072;-52
2023/07/08 13:45:56;;;;;;;8.32;4.35;;;;;;;26.11;50.01;97833.03;10330855;28;20601;-52
2023/07/08 13:51:02;;;;;;;6.43;3.88;;;;;;;25.45;53.31;97860.09;10331265;28;20564;-51
2023/07/08 13:56:04;;;;;;;5.78;2.90;;;;;;;25.00;55.10;97859.22;10330799;28;20132;-52
2023/07/08 14:01:08;;;;;;;5.80;3.20;;;;;;;24.51;56.18;97891.16;10330662;28;20108;-49
2023/07/08 14:06:15;;;;;;;3.55;2.85;;;;;;;24.33;57.58;97904.47;10330616;28;20128;-49
2023/07/08 14:11:14;;;;;;;6.15;3.50;;;;;;;23.98;60.47;97925.78;10330154;28;20124;-50
2023/07/08 14:16:34;;;;;;;4.28;3.67;;;;;;;23.69;62.58;97926.41;10329998;28;20043;-53
2023/07/08 14:21:35;;;;;;;5.03;3.70;;;;;;;22.96;62.99;97823.28;10330557;28;20532;-53
2023/07/08 14:26:34;;;;;;;9.57;4.28;;;;;;;23.44;64.67;97931.16;10328136;28;20501;-51
2023/07/08 14:31:33;;;;;;;5.72;4.00;;;;;;;23.10;68.70;97926.66;10328961;28;20541;-52
2023/07/08 14:36:33;;;;;;;6.85;4.40;;;;;;;23.09;67.56;97937.31;10329351;28;20073;-53
2023/07/08 14:41:32;;;;;;;5.95;4.07;;;;;;;22.85;68.39;97921.69;10328695;28;20212;-50
2023/07/08 14:46:31;;;;;;;7.10;4.28;;;;;;;22.96;68.67;97937.06;10329053;28;20057;-49
2023/07/08 14:51:30;;;;;;;5.93;4.43;;;;;;;23.06;68.76;97929.53;10329284;28;20108;-52
2023/07/08 14:56:29;;;;;;;7.28;4.95;;;;;;;23.04;71.07;97926.09;10327817;28;20065;-51
2023/07/08 15:01:29;;;;;;;7.28;5.28;;;;;;;23.06;73.41;97935.69;10329604;28;20069;-50
2023/07/08 15:06:28;;;;;;;6.03;4.80;;;;;;;23.01;73.62;97933.25;10327195;28;20568;-52
2023/07/08 15:11:27;;;;;;;8.98;5.40;;;;;;;22.89;74.20;97928.56;10328561;28;20504;-48
2023/07/08 15:16:26;;;;;;;6.00;5.22;;;;;;;22.84;74.68;97935.88;10329066;28;20032;-52
2023/07/08 15:21:25;;;;;;;9.55;5.43;;;;;;;22.89;76.01;97933.00;10330701;28;20049;-49
2023/07/08 15:26:26;;;;;;;6.72;5.68;;;;;;;22.99;76.05;97928.97;10330562;28;20036;-51
2023/07/08 15:31:30;;;;;;;7.50;5.57;;;;;;;23.11;75.84;97952.19;10331037;28;20061;-50
2023/07/08 15:36:30;;;;;;;7.00;5.03;;;;;;;23.10;74.28;97958.44;10329956;28;20053;-53
2023/07/08 15:41:30;;;;;;;5.65;4.70;;;;;;;23.07;72.07;97960.34;10330219;28;20065;-51
2023/07/08 15:46:35;;;;;;;6.40;5.13;;;;;;;23.05;74.01;97949.84;10330190;28;20182;-52
2023/07/08 15:51:34;;;;;;;8.13;6.78;;;;;;;22.99;75.72;97955.44;10329581;28;20135;-49
2023/07/08 15:56:33;;;;;;;8.50;6.32;;;;;;;23.03;77.64;97946.41;10329068;28;20095;-52
2023/07/08 16:01:32;;;;;;;10.50;6.88;;;;;;;23.13;77.20;97936.25;10330079;28;20107;-52
2023/07/08 16:06:31;;;;;;;9.45;6.53;;;;;;;23.34;77.58;97929.03;10328587;28;20088;-48
2023/07/08 16:11:31;;;;;;;10.00;6.57;;;;;;;23.37;77.59;97870.59;10328815;28;20099;-51
2023/07/08 16:16:30;;;;;;;9.85;6.45;;;;;;;23.81;77.46;97901.94;10328667;28;20468;-50
2023/07/08 16:21:29;;;;;;;9.18;5.53;;;;;;;23.90;76.43;97888.19;10324890;28;20084;-51
2023/07/08 16:26:29;;;;;;;7.18;6.05;;;;;;;24.00;75.46;97880.59;10323136;28;20037;-52
2023/07/08 16:31:28;;;;;;;8.48;5.32;;;;;;;23.95;70.73;97904.69;10324053;28;20137;-50
2023/07/08 16:36:28;;;;;;;9.73;5.80;;;;;;;23.98;71.30;97922.22;10325396;28;20124;-49
2023/07/08 16:41:35;;;;;;;7.47;5.22;;;;;;;23.99;72.37;97914.22;10324668;28;20413;-52
2023/07/08 16:46:34;;;;;;;9.30;5.50;;;;;;;24.00;71.96;97902.66;10324789;28;20080;-50
2023/07/08 16:51:34;;;;;;;9.13;5.80;;;;;;;24.09;71.61;97905.78;10324677;28;20117;-52
2023/07/08 16:56:33;;;;;;;7.40;5.20;;;;;;;24.16;71.05;97907.16;10323404;28;20131;-52
2023/07/08 17:01:32;;;;;;;7.63;5.72;;;;;;;24.04;69.34;97909.50;10324405;28;20051;-51
2023/07/08 17:06:31;;;;;;;7.78;5.88;;;;;;;23.98;69.66;97914.28;10324942;28;20505;-52
2023/07/08 17:11:30;;;;;;;6.07;4.93;;;;;;;23.90;69.39;97898.78;10323867;28;20786;-52
2023/07/08 17:16:32;;;;;;;6.75;5.20;;;;;;;23.75;71.24;97907.56;10322836;28;20413;-50
2023/07/08 17:21:31;;;;;;;7.72;6.00;;;;;;;23.68;71.33;97903.50;10323821;28;20075;-50
2023/07/08 17:26:30;;;;;;;8.98;5.60;;;;;;;23.60;71.08;97899.44;10323872;28;20033;-52
2023/07/08 17:31:29;;;;;;;8.18;5.78;;;;;;;23.33;72.92;97901.69;10323323;28;20588;-52
2023/07/08 17:36:31;;;;;;;8.13;6.40;;;;;;;23.29;74.24;97905.41;10323724;28;20513;-49
2023/07/08 17:41:30;;;;;;;8.27;5.30;;;;;;;23.20;72.92;97912.03;10323643;28;20064;-52
2023/07/08 17:46:29;;;;;;;8.48;6.18;;;;;;;23.02;73.39;97897.94;10323065;28;20033;-51
2023/07/08 17:51:30;;;;;;;11.27;7.57;;;;;;;22.94;74.64;97909.81;10323491;28;20133;-49
2023/07/08 17:56:43;;;;;;;12.38;7.75;;;;;;;22.78;75.70;97905.25;10323558;28;20124;-52
2023/07/08 18:01:43;;;;;;;8.73;6.65;;;;;;;22.60;76.99;97911.41;10323511;28;20071;-51
2023/07/08 18:06:42;;;;;;;9.52;7.43;;;;;;;22.34;78.61;97915.25;10325173;28;20108;-49
2023/07/08 18:11:47;;;;;;;11.25;7.47;;;;;;;22.02;79.46;97892.94;10330363;28;20048;-52
2023/07/08 18:16:46;;;;;;;10.85;8.43;;;;;;;21.99;80.17;97925.63;10331033;28;20068;-52
2023/07/08 18:21:46;;;;;;;22.80;14.20;;;;;;;21.72;81.05;97904.75;10333398;28;20057;-51
2023/07/08 18:26:45;;;;;;;12.30;8.45;;;;;;;21.61;82.19;97929.91;10333503;28;20068;-51
2023/07/08 18:31:44;;;;;;;13.75;8.52;;;;;;;21.53;83.64;97924.97;10332706;28;20080;-51
2023/07/08 18:36:43;;;;;;;12.68;7.50;;;;;;;20.85;83.98;97858.28;10332600;28;20033;-52
2023/07/08 18:41:46;;;;;;;9.38;7.88;;;;;;;21.27;84.26;97942.75;10332324;28;20065;-52
2023/07/08 18:46:44;;;;;;;10.25;8.20;;;;;;;21.18;85.14;97942.25;10331965;28;20072;-51
2023/07/08 18:51:44;;;;;;;10.45;8.98;;;;;;;21.06;85.87;97947.09;10331840;28;20064;-51
2023/07/08 18:56:44;;;;;;;14.45;9.02;;;;;;;21.02;86.52;97955.19;10332301;28;20072;-50
2023/07/08 19:01:45;;;;;;;9.65;7.85;;;;;;;20.93;86.25;97948.50;10331655;28;20524;-53
2023/07/08 19:06:44;;;;;;;9.73;7.90;;;;;;;20.90;86.32;97960.03;10332676;28;20091;-50
2023/07/08 19:11:45;;;;;;;10.15;8.38;;;;;;;20.85;85.98;97953.22;10331261;28;20124;-52
2023/07/08 19:16:45;;;;;;;10.77;7.85;;;;;;;20.73;85.33;97961.59;10329569;28;20620;-50
2023/07/08 19:21:44;;;;;;;11.00;7.70;;;;;;;20.58;86.17;97956.00;10328499;28;20089;-52
2023/07/08 19:26:44;;;;;;;10.30;8.07;;;;;;;20.53;86.12;97965.03;10327493;28;20369;-52
2023/07/08 19:31:46;;;;;;;11.25;8.07;;;;;;;20.34;86.30;97949.00;10327133;28;20113;-51
2023/07/08 19:36:45;;;;;;;9.75;7.75;;;;;;;20.41;86.74;97983.00;10327030;28;20502;-52
2023/07/08 19:41:44;;;;;;;12.63;7.18;;;;;;;20.43;86.70;97977.69;10327820;28;20500;-51
2023/07/08 19:46:43;;;;;;;9.65;7.43;;;;;;;20.45;86.95;97981.13;10326771;28;20461;-50
2023/07/08 19:51:42;;;;;;;13.73;8.50;;;;;;;20.35;88.42;97987.59;10326591;28;20040;-52
2023/07/08 19:56:41;;;;;;;13.38;9.50;;;;;;;20.01;91.05;97989.69;10326698;28;20075;-52
2023/07/08 20:01:40;;;;;;;13.27;9.43;;;;;;;19.84;92.19;97992.91;10325687;28;20080;-49
2023/07/08 20:06:39;;;;;;;12.40;9.15;;;;;;;19.81;92.25;97998.31;10326304;28;20064;-52
2023/07/08 20:11:38;;;;;;;14.30;9.57;;;;;;;19.73;93.23;97999.47;10326007;28;20037;-52
2023/07/08 20:16:38;;;;;;;16.55;10.50;;;;;;;19.57;94.04;98005.22;10325541;28;20033;-52
2023/07/08 20:21:37;;;;;;;12.07;9.98;;;;;;;19.30;96.57;98007.00;10325504;28;20080;-52
2023/07/08 20:26:39;;;;;;;20.42;11.27;;;;;;;19.36;96.35;98004.13;10325796;28;20482;-51
2023/07/08 20:31:37;;;;;;;15.57;11.23;;;;;;;19.25;97.16;98008.88;10324042;28;20120;-51
2023/07/08 20:36:37;;;;;;;17.58;11.80;;;;;;;18.88;97.84;97957.47;10324806;28;20116;-51
2023/07/08 20:41:36;;;;;;;15.55;9.77;;;;;;;18.86;99.69;97993.44;10325551;28;20064;-51
2023/07/08 20:46:35;;;;;;;18.42;11.77;;;;;;;18.95;98.70;98003.69;10324971;28;20124;-52
2023/07/08 20:51:34;;;;;;;17.33;12.02;;;;;;;18.93;98.49;97999.38;10324293;28;20091;-51
2023/07/08 20:56:33;;;;;;;20.17;13.35;;;;;;;19.01;97.76;98000.84;10324155;28;20453;-49
2023/07/08 21:01:33;;;;;;;19.08;12.27;;;;;;;18.96;97.76;97987.00;10324027;28;20053;-51
2023/07/08 21:06:32;;;;;;;19.13;11.82;;;;;;;18.83;98.73;98001.44;10323565;28;20528;-50
2023/07/08 21:11:31;;;;;;;20.15;12.60;;;;;;;18.84;98.04;97994.41;10323947;28;20124;-51
2023/07/08 21:16:30;;;;;;;23.35;13.90;;;;;;;18.81;97.89;97990.97;10324531;28;20369;-50
2023/07/08 21:21:29;;;;;;;19.27;13.60;;;;;;;18.77;97.86;97985.84;10326910;28;20084;-50
2023/07/08 21:26:30;;;;;;;24.58;14.05;;;;;;;18.79;97.44;97991.91;10327158;28;20029;-50
2023/07/08 21:31:30;;;;;;;18.10;13.90;;;;;;;18.59;98.62;97982.81;10327175;28;20053;-50
2023/07/08 21:36:35;;;;;;;23.98;14.93;;;;;;;18.63;98.35;97986.22;10326311;28;20519;-51
2023/07/08 21:41:34;;;;;;;20.10;15.02;;;;;;;18.58;98.74;97991.63;10330473;28;20064;-51
2023/07/08 21:46:33;;;;;;;21.20;15.15;;;;;;;18.46;99.86;97999.88;10334424;28;20034;-51
2023/07/08 21:51:32;;;;;;;24.95;14.85;;;;;;;18.30;100.00;98003.84;10334743;28;20572;-48
2023/07/08 21:56:31;;;;;;;20.48;16.35;;;;;;;18.34;99.89;97998.44;10335172;28;20475;-52
2023/07/08 22:01:33;;;;;;;21.67;16.20;;;;;;;18.33;99.53;98001.09;10334575;28;20059;-49
2023/07/08 22:06:32;;;;;;;24.05;16.35;;;;;;;18.30;99.13;98006.47;10333444;28;20079;-51
2023/07/08 22:11:35;;;;;;;20.23;14.77;;;;;;;18.29;98.36;97999.47;10333952;28;20033;-51
2023/07/08 22:16:36;;;;;;;25.25;15.88;;;;;;;17.90;97.58;97939.28;10333449;28;20073;-51
2023/07/08 22:21:38;;;;;;;22.60;15.43;;;;;;;18.12;97.29;97990.28;10329727;28;20081;-52
2023/07/08 22:26:44;;;;;;;20.60;15.65;;;;;;;18.07;97.16;97991.34;10330385;28;20073;-52
2023/07/08 22:31:43;;;;;;;20.48;14.90;;;;;;;18.04;97.18;98000.16;10329967;28;20156;-51
2023/07/08 22:36:42;;;;;;;23.63;17.58;;;;;;;18.05;97.05;97991.38;10328586;28;20072;-50
2023/07/08 22:41:44;;;;;;;19.05;16.00;;;;;;;18.05;97.30;97988.72;10329669;28;20061;-51
2023/07/08 22:46:46;;;;;;;23.88;16.50;;;;;;;18.02;97.12;97988.84;10329382;28;20073;-52
2023/07/08 22:51:45;;;;;;;24.48;17.42;;;;;;;17.97;97.35;97988.94;10328130;28;20132;-52
2023/07/08 22:56:45;;;;;;;19.35;16.60;;;;;;;17.79;97.29;97972.84;10328439;28;20137;-50
2023/07/08 23:01:44;;;;;;;24.17;17.48;;;;;;;17.87;97.78;97995.38;10329484;28;20155;-52
2023/07/08 23:06:43;;;;;;;22.35;15.95;;;;;;;17.81;98.15;97995.50;10327211;28;20449;-50
2023/07/08 23:11:42;;;;;;;21.75;15.80;;;;;;;17.82;97.93;97994.59;10328384;28;20128;-49